Time;durP1;ratioP1;P1;durP2;ratioP2;P2;SDS_P1;SDS_P2;PMS_P1;PMS_P2;Temp;Humidity;BMP_temperature;BMP_pressure;BME280_temperature;BME280_humidity;BME280_pressure;Samples;Min_cycle;Max_cycle;Signal;HPM_P1;HPM_P2
2021/08/06 00:02:08;;;;;;;12.73;4.40;;;;;;;29.69;27.04;100185.63;5025450;28;20054;-71
2021/08/06 00:04:36;;;;;;;12.25;4.57;;;;;;;29.58;27.46;100183.69;5020708;28;20042;-71
2021/08/06 00:07:05;;;;;;;13.65;4.55;;;;;;;29.58;27.48;100180.09;5024114;28;20176;-72
2021/08/06 00:09:37;;;;;;;19.40;4.43;;;;;;;29.62;27.19;100182.50;5017357;28;20037;-71
2021/08/06 00:12:06;;;;;;;9.27;3.70;;;;;;;29.57;27.29;100181.97;5017960;28;20045;-71
2021/08/06 00:14:33;;;;;;;14.23;4.20;;;;;;;29.46;27.53;100181.00;5017987;28;20042;-71
2021/08/06 00:17:01;;;;;;;15.82;4.68;;;;;;;29.49;27.69;100175.31;5023704;28;20056;-71
2021/08/06 00:19:28;;;;;;;19.35;3.97;;;;;;;29.52;27.40;100176.00;5027579;28;20050;-71
2021/08/06 00:21:56;;;;;;;11.40;4.07;;;;;;;29.51;27.50;100173.38;5027013;28;20392;-71
2021/08/06 00:24:24;;;;;;;11.35;4.40;;;;;;;29.53;27.57;100172.28;5027182;28;20044;-72
2021/08/06 00:26:52;;;;;;;15.05;4.55;;;;;;;29.46;27.97;100165.56;5017930;28;20515;-71
2021/08/06 00:29:19;;;;;;;14.23;4.28;;;;;;;29.44;27.60;100161.19;5029428;28;20045;-71
2021/08/06 00:31:47;;;;;;;19.13;3.88;;;;;;;29.48;27.30;100159.97;5026851;28;20037;-69
2021/08/06 00:34:14;;;;;;;13.73;3.80;;;;;;;29.50;27.66;100156.19;5020740;28;20049;-71
2021/08/06 00:36:42;;;;;;;15.40;4.30;;;;;;;29.53;27.53;100155.97;5029398;28;20049;-71
2021/08/06 00:39:09;;;;;;;17.38;4.65;;;;;;;29.53;27.56;100152.38;5013551;28;20050;-70
2021/08/06 00:41:38;;;;;;;12.68;3.88;;;;;;;29.56;27.46;100152.13;5031422;28;20053;-71
2021/08/06 00:44:06;;;;;;;13.73;4.68;;;;;;;29.56;27.85;100147.56;5027300;28;20625;-71
2021/08/06 00:46:33;;;;;;;13.43;4.28;;;;;;;29.57;27.58;100143.88;5019421;28;20495;-70
2021/08/06 00:49:01;;;;;;;13.20;5.00;;;;;;;29.54;27.69;100143.19;5023643;28;20029;-71
2021/08/06 00:51:29;;;;;;;18.35;4.35;;;;;;;29.44;28.03;100136.72;5015321;28;20079;-71
2021/08/06 00:53:56;;;;;;;21.05;4.30;;;;;;;29.43;28.04;100137.69;5010601;28;20395;-70
2021/08/06 00:56:24;;;;;;;16.60;4.80;;;;;;;29.43;27.75;100135.84;5026721;28;20038;-70
2021/08/06 00:58:54;;;;;;;10.93;4.00;;;;;;;29.44;28.01;100134.84;5023542;28;20045;-70
2021/08/06 01:01:22;;;;;;;15.18;4.65;;;;;;;29.45;27.75;100141.16;5066015;28;20115;-70
2021/08/06 01:04:01;;;;;;;19.67;4.55;;;;;;;29.38;28.02;100131.72;5064074;28;20089;-70
2021/08/06 01:06:38;;;;;;;11.93;4.78;;;;;;;29.38;28.01;100129.88;5065466;28;20044;-70
2021/08/06 01:09:12;;;;;;;11.52;4.28;;;;;;;29.38;28.26;100126.28;5067270;28;20049;-70
2021/08/06 01:11:43;;;;;;;12.68;4.13;;;;;;;29.35;28.09;100129.19;5069131;28;20051;-70
2021/08/06 01:14:16;;;;;;;14.57;3.90;;;;;;;29.30;28.57;100114.06;5062692;28;20059;-71
2021/08/06 01:16:48;;;;;;;13.38;4.32;;;;;;;29.30;28.40;100122.22;5065742;28;20174;-70
2021/08/06 01:19:25;;;;;;;13.27;4.45;;;;;;;29.23;28.13;100120.91;5064212;28;20052;-70
2021/08/06 01:22:04;;;;;;;13.63;4.10;;;;;;;29.12;28.61;100118.09;5066383;28;20048;-70
2021/08/06 01:24:35;;;;;;;16.05;4.32;;;;;;;29.09;29.28;100120.16;5064806;28;20398;-71
2021/08/06 01:27:04;;;;;;;17.17;4.88;;;;;;;29.00;29.45;100115.41;5067912;28;20045;-70
2021/08/06 01:29:33;;;;;;;14.52;4.50;;;;;;;28.97;29.35;100104.72;5062640;28;20045;-70
2021/08/06 01:32:00;;;;;;;14.98;5.38;;;;;;;28.98;29.53;100106.47;5066264;28;20051;-71
2021/08/06 01:34:27;;;;;;;21.35;5.05;;;;;;;28.93;29.49;100104.09;5067358;28;20040;-71
2021/08/06 01:36:55;;;;;;;22.20;4.90;;;;;;;28.87;29.84;100104.53;5063946;28;20398;-69
2021/08/06 01:39:22;;;;;;;16.10;5.18;;;;;;;28.79;29.52;100107.78;5063260;28;20499;-70
2021/08/06 01:41:59;;;;;;;13.95;4.72;;;;;;;28.76;29.68;100104.38;5063349;28;20402;-69
2021/08/06 01:44:35;;;;;;;18.77;4.63;;;;;;;28.76;29.86;100109.81;5067997;28;20520;-71
2021/08/06 01:47:08;;;;;;;15.55;4.88;;;;;;;28.75;29.79;100102.69;5062011;28;20033;-70
2021/08/06 01:49:41;;;;;;;14.23;4.13;;;;;;;28.73;29.63;100108.19;5067824;28;20032;-70
2021/08/06 01:52:12;;;;;;;13.75;4.75;;;;;;;28.70;29.89;100108.38;5073289;28;20049;-71
2021/08/06 01:54:42;;;;;;;17.38;4.78;;;;;;;28.71;29.81;100101.09;5058618;28;20474;-72
2021/08/06 01:57:12;;;;;;;13.85;4.43;;;;;;;28.66;30.02;100106.00;5068974;28;20052;-71
2021/08/06 01:59:41;;;;;;;13.95;4.78;;;;;;;28.63;30.02;100103.47;5061851;28;20426;-71
2021/08/06 02:02:10;;;;;;;14.50;4.35;;;;;;;28.60;30.07;100101.88;5038099;28;20057;-71
2021/08/06 02:04:37;;;;;;;18.60;4.05;;;;;;;28.57;30.20;100098.47;5043614;28;20052;-71
2021/08/06 02:07:05;;;;;;;11.43;4.47;;;;;;;28.55;30.53;100096.72;5043109;28;20122;-69
2021/08/06 02:09:35;;;;;;;13.55;4.90;;;;;;;28.51;30.61;100102.50;5042915;28;20041;-71
2021/08/06 02:12:03;;;;;;;15.20;5.60;;;;;;;28.47;30.67;100100.97;5050786;28;20073;-71
2021/08/06 02:14:30;;;;;;;16.00;5.68;;;;;;;28.44;31.14;100095.75;5047127;28;20052;-70
2021/08/06 02:17:00;;;;;;;15.57;5.25;;;;;;;28.42;30.71;100101.28;5041100;28;20402;-70
2021/08/06 02:19:30;;;;;;;13.50;5.30;;;;;;;28.40;30.96;100110.50;5041652;28;20414;-71
2021/08/06 02:22:00;;;;;;;16.55;5.18;;;;;;;28.29;31.12;100105.81;5047700;28;20048;-71
2021/08/06 02:24:32;;;;;;;17.65;5.07;;;;;;;28.21;31.16;100104.59;5049285;28;20045;-70
2021/08/06 02:27:01;;;;;;;14.63;5.50;;;;;;;28.14;31.14;100107.72;5045325;28;20033;-71
2021/08/06 02:29:31;;;;;;;15.40;5.28;;;;;;;28.18;31.24;100111.09;5050532;28;20051;-70
2021/08/06 02:32:01;;;;;;;20.65;5.32;;;;;;;28.15;30.82;100114.03;5057698;28;20033;-71
2021/08/06 02:34:29;;;;;;;17.42;5.03;;;;;;;28.00;31.19;100104.16;5048897;28;20104;-70
2021/08/06 02:36:58;;;;;;;18.58;5.30;;;;;;;28.00;30.95;100101.44;5044758;28;20045;-71
2021/08/06 02:39:29;;;;;;;16.60;5.32;;;;;;;28.07;30.84;100097.34;5045355;28;20037;-70
2021/08/06 02:41:57;;;;;;;17.25;4.90;;;;;;;28.07;30.61;100094.63;5048136;28;20037;-70
2021/08/06 02:44:25;;;;;;;15.77;4.75;;;;;;;27.99;30.93;100097.00;5047811;28;20060;-71
2021/08/06 02:46:53;;;;;;;15.13;4.88;;;;;;;27.88;31.48;100105.00;5045539;28;20040;-70
2021/08/06 02:49:22;;;;;;;16.83;5.03;;;;;;;27.85;31.38;100097.03;5050442;28;20045;-70
2021/08/06 02:51:49;;;;;;;15.00;5.20;;;;;;;27.88;31.32;100097.72;5049284;28;20037;-69
2021/08/06 02:54:16;;;;;;;19.25;5.28;;;;;;;27.77;31.54;100095.69;5048200;28;20380;-71
2021/08/06 02:56:44;;;;;;;21.40;5.40;;;;;;;27.89;31.46;100095.88;5046059;28;20407;-70
2021/08/06 02:59:11;;;;;;;14.30;4.68;;;;;;;27.89;31.28;100104.03;5047779;28;20047;-70
2021/08/06 03:01:38;;;;;;;19.42;5.90;;;;;;;27.92;30.91;100101.97;5048923;28;20056;-71
2021/08/06 03:04:06;;;;;;;20.33;5.47;;;;;;;27.97;30.81;100101.66;5046039;28;20056;-71
2021/08/06 03:06:35;;;;;;;19.38;5.95;;;;;;;27.96;31.02;100110.78;5039855;28;20045;-71
2021/08/06 03:09:02;;;;;;;19.05;5.90;;;;;;;27.99;31.14;100097.88;5045030;28;20491;-71
2021/08/06 03:11:30;;;;;;;15.23;5.63;;;;;;;27.99;30.81;100095.16;5047733;28;20060;-70
2021/08/06 03:13:57;;;;;;;20.92;6.45;;;;;;;28.00;30.73;100094.19;5045880;28;20510;-70
2021/08/06 03:16:25;;;;;;;22.23;6.70;;;;;;;27.99;30.75;100099.72;5046636;28;20041;-71
2021/08/06 03:18:52;;;;;;;18.38;5.72;;;;;;;28.02;30.97;100094.09;5046271;28;21540;-71
2021/08/06 03:21:19;;;;;;;21.40;6.43;;;;;;;28.03;31.08;100106.66;5048424;28;20491;-71
2021/08/06 03:23:48;;;;;;;17.27;5.75;;;;;;;27.99;31.20;100097.00;5048876;28;20041;-70
2021/08/06 03:26:16;;;;;;;16.50;6.10;;;;;;;27.97;31.24;100099.81;5044750;28;20525;-70
2021/08/06 03:28:43;;;;;;;23.27;6.05;;;;;;;27.94;31.21;100094.59;5049564;28;20051;-71
2021/08/06 03:31:11;;;;;;;17.63;5.70;;;;;;;27.98;30.87;100095.25;5045724;28;20064;-71
2021/08/06 03:33:38;;;;;;;20.23;6.20;;;;;;;27.99;30.86;100091.56;5041358;28;20056;-70
2021/08/06 03:36:07;;;;;;;23.00;7.10;;;;;;;27.96;30.89;100097.22;5042615;28;20044;-71
2021/08/06 03:38:34;;;;;;;20.52;6.53;;;;;;;27.93;30.89;100089.25;5043413;28;20056;-70
2021/08/06 03:41:03;;;;;;;20.30;7.57;;;;;;;27.98;30.61;100085.25;5045763;28;20048;-72
2021/08/06 03:43:30;;;;;;;20.38;6.57;;;;;;;28.01;30.81;100081.47;5044996;28;20048;-70
2021/08/06 03:45:57;;;;;;;18.42;6.45;;;;;;;27.98;30.71;100085.25;5046247;28;20056;-71
2021/08/06 03:48:25;;;;;;;24.77;7.53;;;;;;;27.98;31.04;100085.25;5047887;28;20048;-70
2021/08/06 03:50:52;;;;;;;23.90;7.10;;;;;;;27.98;30.88;100085.25;5043299;28;20412;-70
2021/08/06 03:53:19;;;;;;;19.30;7.53;;;;;;;28.03;30.93;100082.22;5047373;28;20041;-70
2021/08/06 03:55:47;;;;;;;19.05;7.65;;;;;;;28.10;30.34;100089.00;5046223;28;20040;-70
2021/08/06 03:58:16;;;;;;;22.58;8.05;;;;;;;28.20;30.40;100084.72;5047169;28;20037;-71
2021/08/06 04:00:43;;;;;;;20.30;7.32;;;;;;;28.24;30.42;100088.09;5061480;28;20052;-71
2021/08/06 04:03:11;;;;;;;22.58;7.28;;;;;;;28.24;30.28;100088.97;5059457;28;20048;-70
2021/08/06 04:05:38;;;;;;;19.88;7.95;;;;;;;28.30;30.40;100087.66;5065482;28;20056;-71
2021/08/06 04:08:06;;;;;;;23.95;7.35;;;;;;;28.41;30.10;100085.09;5067878;28;20055;-71
2021/08/06 04:10:35;;;;;;;20.27;7.47;;;;;;;28.49;30.32;100089.00;5067319;28;20041;-71
2021/08/06 04:13:02;;;;;;;20.13;7.93;;;;;;;28.59;29.88;100085.66;5064523;28;20037;-71
2021/08/06 04:15:31;;;;;;;21.00;7.47;;;;;;;28.66;30.25;100081.53;5069500;28;20056;-70
2021/08/06 04:17:58;;;;;;;21.75;7.75;;;;;;;28.70;29.77;100086.66;5066360;28;20049;-71
2021/08/06 04:20:26;;;;;;;24.30;7.70;;;;;;;28.77;30.10;100084.41;5066793;28;20414;-70
2021/08/06 04:22:53;;;;;;;24.75;8.07;;;;;;;28.84;30.01;100093.88;5068921;28;20040;-71
2021/08/06 04:25:21;;;;;;;16.90;7.75;;;;;;;28.91;30.28;100098.75;5063821;28;20040;-70
2021/08/06 04:27:48;;;;;;;22.33;7.68;;;;;;;28.98;30.36;100090.16;5066589;28;20055;-70
2021/08/06 04:30:16;;;;;;;21.40;7.70;;;;;;;29.14;30.03;100098.97;5072311;28;20051;-71
2021/08/06 04:32:45;;;;;;;21.92;8.15;;;;;;;29.28;29.95;100096.97;5070735;28;20398;-71
2021/08/06 04:35:12;;;;;;;19.23;8.55;;;;;;;29.41;30.09;100086.09;5061111;28;20044;-71
2021/08/06 04:37:47;;;;;;;19.80;7.45;;;;;;;29.58;30.01;100087.59;5065821;28;20056;-71
2021/08/06 04:40:16;;;;;;;19.50;7.45;;;;;;;29.65;30.29;100089.75;5060382;28;20041;-71
2021/08/06 04:42:44;;;;;;;19.17;7.28;;;;;;;29.78;30.68;100089.72;5065832;28;20060;-71
2021/08/06 04:45:12;;;;;;;26.15;7.47;;;;;;;29.90;31.02;100098.81;5067926;28;20055;-71
2021/08/06 04:47:45;;;;;;;20.73;7.88;;;;;;;30.09;30.82;100101.91;5065032;28;20441;-71
2021/08/06 04:50:14;;;;;;;19.58;8.18;;;;;;;30.20;30.75;100101.06;5061233;28;20044;-71
2021/08/06 04:52:42;;;;;;;18.80;8.38;;;;;;;30.31;30.54;100092.97;5065624;28;20544;-71
2021/08/06 04:55:10;;;;;;;21.02;8.60;;;;;;;30.46;30.46;100108.13;5065722;28;20048;-72
2021/08/06 04:57:38;;;;;;;16.67;7.10;;;;;;;30.62;30.43;100103.25;5065184;28;20051;-71
2021/08/06 05:00:07;;;;;;;20.08;6.97;;;;;;;30.79;30.12;100105.50;5067329;28;20997;-71
2021/08/06 05:02:34;;;;;;;21.38;7.68;;;;;;;30.90;30.24;100101.97;5067947;28;20449;-71
2021/08/06 05:05:04;;;;;;;21.52;8.75;;;;;;;31.03;29.79;100102.72;5059294;28;20041;-71
2021/08/06 05:07:32;;;;;;;25.40;8.20;;;;;;;31.20;30.10;100101.38;5065911;28;20433;-70
2021/08/06 05:09:59;;;;;;;18.13;7.70;;;;;;;31.40;30.38;100102.50;5066781;28;20541;-71
2021/08/06 05:12:26;;;;;;;25.67;7.97;;;;;;;31.55;31.17;100104.84;5068785;28;20044;-70
2021/08/06 05:14:54;;;;;;;16.08;8.13;;;;;;;31.77;31.59;100103.13;5065709;28;20066;-70
2021/08/06 05:17:21;;;;;;;21.25;7.95;;;;;;;31.94;31.94;100088.91;5066542;28;20051;-71
2021/08/06 05:19:49;;;;;;;26.08;8.68;;;;;;;32.11;31.37;100087.47;5064027;28;20489;-71
2021/08/06 05:22:17;;;;;;;21.77;7.88;;;;;;;32.22;31.58;100082.03;5066892;28;20048;-70
2021/08/06 05:24:45;;;;;;;22.52;7.70;;;;;;;32.16;31.22;100086.16;5062178;28;20051;-70
2021/08/06 05:27:12;;;;;;;18.95;8.27;;;;;;;32.09;30.38;100082.16;5056924;28;20059;-70
2021/08/06 05:29:39;;;;;;;24.70;9.07;;;;;;;32.23;29.43;100078.31;5068444;28;20051;-70
2021/08/06 05:32:07;;;;;;;23.08;7.90;;;;;;;32.48;28.60;100088.84;5066763;28;20036;-70
2021/08/06 05:34:35;;;;;;;30.65;8.73;;;;;;;32.68;28.20;100085.28;5063198;28;20052;-70
2021/08/06 05:37:02;;;;;;;21.77;8.40;;;;;;;32.86;27.64;100088.28;5064875;28;20037;-71
2021/08/06 05:39:31;;;;;;;20.20;8.18;;;;;;;33.12;27.82;100080.50;5066840;28;20048;-71
2021/08/06 05:41:58;;;;;;;22.92;8.80;;;;;;;33.51;28.04;100090.63;5068755;28;20107;-70
2021/08/06 05:44:25;;;;;;;22.13;8.57;;;;;;;33.83;27.55;100087.72;5067827;28;20032;-71
2021/08/06 05:46:53;;;;;;;28.77;8.73;;;;;;;33.87;27.51;100094.63;5068452;28;20053;-70
2021/08/06 05:49:21;;;;;;;21.30;7.72;;;;;;;34.06;27.43;100096.56;5070356;28;20512;-69
2021/08/06 05:51:48;;;;;;;25.02;8.25;;;;;;;34.37;26.99;100095.44;5068517;28;20068;-70
2021/08/06 05:54:15;;;;;;;26.05;8.30;;;;;;;34.75;27.03;100093.69;5078936;28;20449;-70
2021/08/06 05:56:44;;;;;;;21.30;7.47;;;;;;;35.12;27.52;100096.47;5079076;28;20051;-71
2021/08/06 05:59:11;;;;;;;20.70;8.07;;;;;;;35.33;26.98;100099.91;5062796;28;20493;-70
2021/08/06 06:01:38;;;;;;;32.10;8.35;;;;;;;35.46;26.57;100097.66;5066481;28;20528;-71
2021/08/06 06:04:06;;;;;;;19.45;8.25;;;;;;;35.63;26.49;100104.25;5054417;28;20044;-70
2021/08/06 06:06:33;;;;;;;21.13;8.88;;;;;;;35.85;25.94;100098.34;5052287;28;20417;-70
2021/08/06 06:09:01;;;;;;;28.92;9.32;;;;;;;36.09;26.10;100102.41;5056053;28;20103;-71
2021/08/06 06:11:28;;;;;;;21.25;7.70;;;;;;;36.07;25.86;100098.94;5058089;28;20040;-70
2021/08/06 06:14:00;;;;;;;22.38;8.38;;;;;;;36.14;25.60;100100.91;5059043;28;20039;-71
2021/08/06 06:16:27;;;;;;;26.38;8.63;;;;;;;36.68;23.37;100093.56;5065254;28;20139;-70
2021/08/06 06:18:55;;;;;;;25.30;8.63;;;;;;;37.03;22.90;100098.94;5063670;28;20048;-70
2021/08/06 06:21:22;;;;;;;21.45;8.55;;;;;;;37.28;22.61;100101.91;5070035;28;20040;-71
2021/08/06 06:23:49;;;;;;;27.50;9.32;;;;;;;37.62;21.39;100099.16;5062590;28;20060;-70
2021/08/06 06:26:17;;;;;;;26.67;10.43;;;;;;;37.89;19.32;100097.00;5057118;28;20053;-71
2021/08/06 06:28:44;;;;;;;36.85;11.25;;;;;;;38.15;18.40;100099.69;5056322;28;20334;-70
2021/08/06 06:31:13;;;;;;;34.45;12.15;;;;;;;38.36;17.04;100101.97;5058915;28;20379;-70
2021/08/06 06:33:40;;;;;;;22.98;10.57;;;;;;;38.50;16.08;100098.56;5055151;28;20079;-70
2021/08/06 06:36:07;;;;;;;29.08;11.48;;;;;;;38.64;15.54;100086.81;5058570;28;20048;-71
2021/08/06 06:38:35;;;;;;;20.95;10.30;;;;;;;38.86;15.15;100093.50;5062276;28;20037;-70
2021/08/06 06:41:02;;;;;;;21.67;10.35;;;;;;;39.02;14.82;100093.53;5063159;28;20047;-71
2021/08/06 06:43:29;;;;;;;19.58;10.57;;;;;;;39.17;14.51;100095.56;5065476;28;20417;-69
2021/08/06 06:45:56;;;;;;;25.67;11.43;;;;;;;39.36;13.70;100092.44;5067743;28;20041;-70
2021/08/06 06:48:25;;;;;;;21.48;10.35;;;;;;;39.55;14.13;100092.00;5061014;28;20045;-70
2021/08/06 06:50:53;;;;;;;25.20;11.10;;;;;;;39.66;14.19;100097.13;5069371;28;20472;-70
2021/08/06 06:53:20;;;;;;;19.83;10.55;;;;;;;39.72;13.81;100088.13;5066632;28;20040;-67
2021/08/06 06:55:47;;;;;;;19.25;10.15;;;;;;;39.72;13.64;100090.88;5072244;28;20025;-71
2021/08/06 06:58:15;;;;;;;21.85;10.30;;;;;;;39.75;13.65;100096.06;5062514;28;20514;-71
2021/08/06 07:00:43;;;;;;;17.35;9.32;;;;;;;39.78;13.79;100086.53;5068459;28;20044;-71
2021/08/06 07:03:10;;;;;;;25.85;11.55;;;;;;;39.87;13.29;100077.19;5069328;28;22178;-71
2021/08/06 07:05:39;;;;;;;19.25;11.00;;;;;;;40.06;12.67;100082.25;5069360;28;20041;-71
2021/08/06 07:08:06;;;;;;;23.65;10.45;;;;;;;40.21;12.93;100080.44;5069547;28;20494;-71
2021/08/06 07:10:33;;;;;;;21.60;10.30;;;;;;;40.31;13.14;100085.72;5061145;28;20493;-71
2021/08/06 07:13:01;;;;;;;18.15;9.35;;;;;;;40.49;13.21;100082.69;5066003;28;20500;-71
2021/08/06 07:15:28;;;;;;;24.83;9.88;;;;;;;40.62;13.11;100080.13;5067542;28;20072;-71
2021/08/06 07:17:56;;;;;;;25.33;10.43;;;;;;;40.73;12.58;100076.94;5057223;28;20053;-71
2021/08/06 07:20:23;;;;;;;32.58;10.57;;;;;;;40.81;12.48;100076.00;5059064;28;20032;-70
2021/08/06 07:22:55;;;;;;;27.15;11.23;;;;;;;41.05;12.44;100080.41;5069244;28;20086;-69
2021/08/06 07:25:23;;;;;;;20.40;11.60;;;;;;;41.04;12.40;100073.16;5070308;28;20509;-70
2021/08/06 07:27:52;;;;;;;22.38;9.93;;;;;;;41.28;12.38;100073.78;5069658;28;20046;-71
2021/08/06 07:30:19;;;;;;;28.55;10.75;;;;;;;41.46;12.37;100078.94;5063855;28;20525;-71
2021/08/06 07:32:48;;;;;;;22.83;10.10;;;;;;;41.56;12.43;100062.88;5063915;28;20047;-71
2021/08/06 07:35:16;;;;;;;28.60;10.70;;;;;;;41.83;12.06;100065.97;5069793;28;20501;-72
2021/08/06 07:37:44;;;;;;;25.85;9.45;;;;;;;42.06;12.12;100070.38;5069196;28;20037;-71
2021/08/06 07:40:16;;;;;;;23.55;9.20;;;;;;;42.10;12.66;100071.69;5061832;28;20119;-71
2021/08/06 07:42:44;;;;;;;19.02;8.48;;;;;;;42.06;12.34;100055.63;5064339;28;20041;-71
2021/08/06 07:45:12;;;;;;;19.70;6.00;;;;;;;42.24;11.81;100066.25;5069246;28;20040;-71
2021/08/06 07:47:40;;;;;;;18.02;6.68;;;;;;;42.43;11.45;100063.72;5062037;28;20053;-71
2021/08/06 07:50:09;;;;;;;21.17;4.10;;;;;;;42.58;10.74;100063.63;5067992;28;20040;-71
2021/08/06 07:52:36;;;;;;;14.50;4.13;;;;;;;42.76;10.36;100064.03;5063766;28;20052;-71
2021/08/06 07:55:05;;;;;;;16.92;3.67;;;;;;;42.88;9.72;100056.84;5060132;28;20043;-71
2021/08/06 07:57:33;;;;;;;14.07;3.25;;;;;;;43.05;9.20;100062.09;5065136;28;20033;-71
2021/08/06 08:00:01;;;;;;;14.20;3.38;;;;;;;43.23;9.27;100063.31;5069056;28;20036;-71
2021/08/06 08:02:31;;;;;;;15.70;3.90;;;;;;;43.42;8.77;100058.06;5062615;28;20147;-71
2021/08/06 08:04:59;;;;;;;22.90;3.78;;;;;;;43.52;8.69;100059.41;5061956;28;20554;-73
2021/08/06 08:07:26;;;;;;;15.52;3.35;;;;;;;43.59;8.87;100065.88;5072261;28;20055;-71
2021/08/06 08:09:54;;;;;;;17.02;3.95;;;;;;;43.79;8.48;100060.38;5076237;28;20045;-70
2021/08/06 08:12:21;;;;;;;18.75;4.60;;;;;;;43.92;8.94;100065.16;5066597;28;20051;-69
2021/08/06 08:14:50;;;;;;;14.27;3.20;;;;;;;44.02;8.72;100071.22;5064496;28;20049;-71
2021/08/06 08:17:17;;;;;;;14.25;3.08;;;;;;;44.06;8.52;100066.94;5067128;28;20044;-71
2021/08/06 08:19:45;;;;;;;16.45;3.90;;;;;;;44.16;8.38;100060.97;5062695;28;20061;-71
2021/08/06 08:22:13;;;;;;;17.95;3.13;;;;;;;44.30;8.14;100063.59;5067693;28;20131;-71
2021/08/06 08:24:42;;;;;;;18.95;3.63;;;;;;;44.36;8.41;100064.69;5060614;28;20053;-71
2021/08/06 08:27:09;;;;;;;16.73;3.40;;;;;;;44.47;8.27;100062.09;5067837;28;20033;-71
2021/08/06 08:29:36;;;;;;;21.85;3.83;;;;;;;44.56;7.83;100062.75;5069361;28;20041;-70
2021/08/06 08:32:06;;;;;;;18.25;3.03;;;;;;;44.63;7.45;100058.06;5063166;28;20040;-72
2021/08/06 08:34:33;;;;;;;19.17;3.55;;;;;;;44.66;7.65;100054.81;5066314;28;20045;-71
2021/08/06 08:37:01;;;;;;;17.65;3.78;;;;;;;44.80;7.71;100067.72;5067023;28;20059;-70
2021/08/06 08:39:28;;;;;;;15.88;3.65;;;;;;;44.80;7.62;100059.34;5062666;28;20049;-70
2021/08/06 08:41:58;;;;;;;15.18;2.70;;;;;;;44.88;7.53;100058.28;5065241;28;20043;-70
2021/08/06 08:44:25;;;;;;;12.82;2.65;;;;;;;45.03;7.36;100058.88;5062103;28;20036;-70
2021/08/06 08:46:53;;;;;;;17.90;3.17;;;;;;;45.11;7.46;100049.47;5068035;28;20048;-70
2021/08/06 08:49:24;;;;;;;20.75;3.28;;;;;;;45.22;7.45;100043.22;5063970;28;20055;-71
2021/08/06 08:51:52;;;;;;;12.80;2.92;;;;;;;45.27;7.54;100049.00;5061147;28;20036;-69
2021/08/06 08:54:19;;;;;;;20.23;3.17;;;;;;;45.25;7.34;100042.78;5063609;28;20387;-71
2021/08/06 08:56:46;;;;;;;17.00;3.72;;;;;;;45.24;7.32;100043.84;5057335;28;20041;-71
2021/08/06 08:59:14;;;;;;;16.17;3.72;;;;;;;45.26;7.55;100036.13;5060622;28;20173;-71
2021/08/06 09:01:42;;;;;;;14.52;3.08;;;;;;;45.34;7.61;100040.59;5056916;28;20060;-71
2021/08/06 09:04:24;;;;;;;13.75;2.78;;;;;;;45.45;7.21;100032.44;5059938;28;20553;-70
2021/08/06 09:06:53;;;;;;;14.98;3.28;;;;;;;45.41;7.15;100033.94;5062849;28;20037;-69
2021/08/06 09:09:22;;;;;;;17.55;2.78;;;;;;;45.36;7.10;100016.97;5067363;28;20509;-70
2021/08/06 09:11:50;;;;;;;19.08;3.92;;;;;;;45.44;7.30;100027.03;5065715;28;20049;-70
2021/08/06 09:14:24;;;;;;;21.88;3.60;;;;;;;45.51;7.67;100019.53;5067697;28;20049;-70
2021/08/06 09:17:06;;;;;;;19.73;4.07;;;;;;;45.55;7.53;100018.03;5063630;28;20043;-67
2021/08/06 09:19:36;;;;;;;15.18;4.30;;;;;;;45.35;7.33;100015.28;5061082;28;20036;-69
2021/08/06 09:22:13;;;;;;;18.50;4.53;;;;;;;45.03;7.22;100010.66;5067537;28;20056;-69
2021/08/06 09:25:06;;;;;;;15.95;4.20;;;;;;;44.82;7.55;100009.84;5064330;28;20048;-69
2021/08/06 09:27:34;;;;;;;;;;;;;;;44.52;7.59;100007.66;5058979;28;20075;-68
2021/08/06 09:30:04;;;;;;;17.35;4.85;;;;;;;44.44;7.69;100008.75;5064939;28;19920;-67
2021/08/06 09:32:49;;;;;;;16.50;3.90;;;;;;;44.32;8.00;100008.53;5066282;28;20040;-69
2021/08/06 09:35:20;;;;;;;16.92;5.13;;;;;;;44.44;8.35;100005.97;5063122;28;20051;-69
2021/08/06 09:37:47;;;;;;;14.05;4.22;;;;;;;44.58;8.35;100010.44;5068376;28;20040;-70
2021/08/06 09:40:17;;;;;;;15.30;4.00;;;;;;;44.57;8.67;100011.53;5063584;28;20072;-71
2021/08/06 09:42:50;;;;;;;14.23;3.63;;;;;;;44.46;9.18;100006.59;5066684;28;20065;-71
2021/08/06 09:45:21;;;;;;;13.40;3.78;;;;;;;44.51;9.60;100012.38;5061068;28;20041;-70
2021/08/06 09:47:55;;;;;;;13.65;3.60;;;;;;;44.64;9.70;100006.78;5075027;28;20044;-70
2021/08/06 09:50:33;;;;;;;14.90;3.53;;;;;;;44.70;9.43;100006.00;5058346;28;20543;-70
2021/08/06 09:53:01;;;;;;;14.27;3.08;;;;;;;44.76;9.52;100004.25;5066148;28;20114;-70
2021/08/06 09:55:31;;;;;;;18.80;3.05;;;;;;;44.99;9.18;99993.47;5065841;28;20049;-71
2021/08/06 09:58:00;;;;;;;17.38;3.55;;;;;;;45.08;8.94;99997.78;5067764;28;20032;-71
2021/08/06 10:00:28;;;;;;;18.30;3.58;;;;;;;45.20;8.84;99995.16;5066422;28;20048;-71
2021/08/06 10:02:57;;;;;;;18.80;4.30;;;;;;;45.31;8.80;100001.97;5066430;28;20044;-71
2021/08/06 10:05:27;;;;;;;18.92;3.58;;;;;;;45.35;8.71;99992.97;5066060;28;20051;-71
2021/08/06 10:07:56;;;;;;;16.15;3.63;;;;;;;45.42;8.62;99987.38;5057907;28;20120;-70
2021/08/06 10:10:25;;;;;;;13.88;3.42;;;;;;;45.38;8.58;99988.88;5064164;28;20048;-69
2021/08/06 10:12:54;;;;;;;17.63;3.33;;;;;;;45.32;8.57;99987.81;5065597;28;20486;-69
2021/08/06 10:15:24;;;;;;;18.98;3.20;;;;;;;45.26;8.44;99983.13;5064401;28;20045;-67
2021/08/06 10:17:52;;;;;;;18.08;3.85;;;;;;;45.31;8.45;99980.53;5064700;28;20037;-71
2021/08/06 10:20:24;;;;;;;20.20;3.78;;;;;;;45.35;8.49;99973.44;5065663;28;20058;-70
2021/08/06 10:22:54;;;;;;;14.75;3.50;;;;;;;45.29;8.77;99973.47;5061499;28;20120;-70
2021/08/06 10:25:24;;;;;;;26.77;3.20;;;;;;;45.22;9.17;99976.28;5071448;28;20048;-71
2021/08/06 10:27:52;;;;;;;22.83;3.17;;;;;;;45.21;9.08;99975.44;5067381;28;20056;-71
2021/08/06 10:30:24;;;;;;;20.73;3.30;;;;;;;45.26;9.09;99974.78;5070147;28;20045;-71
2021/08/06 10:33:10;;;;;;;26.47;4.23;;;;;;;45.04;9.49;99974.16;5046469;28;20072;-67
2021/08/06 10:35:46;;;;;;;14.82;3.55;;;;;;;44.98;9.38;99976.97;5071008;28;20055;-71
2021/08/06 10:38:18;;;;;;;16.92;3.85;;;;;;;45.05;9.23;99969.44;5058429;28;20056;-73
2021/08/06 10:41:16;;;;;;;19.27;3.97;;;;;;;44.89;9.26;99973.59;5067379;28;20406;-71
2021/08/06 10:43:52;;;;;;;19.38;3.88;;;;;;;44.74;9.45;99971.03;5066637;28;20048;-72
2021/08/06 10:46:21;;;;;;;21.80;3.53;;;;;;;44.76;9.54;99971.69;5066996;28;20040;-71
2021/08/06 10:48:51;;;;;;;20.27;3.65;;;;;;;44.73;9.42;99969.31;5068354;28;20052;-72
2021/08/06 10:51:33;;;;;;;19.95;4.10;;;;;;;44.43;9.42;99960.56;5071103;28;20051;-72
2021/08/06 10:54:35;;;;;;;22.90;3.90;;;;;;;44.35;9.75;99971.91;5064833;28;20045;-72
2021/08/06 10:57:28;;;;;;;18.20;3.72;;;;;;;44.37;9.98;99971.69;5069499;28;20045;-72
2021/08/06 10:59:56;;;;;;;16.20;3.38;;;;;;;44.45;10.20;99963.09;5044776;28;20051;-71
2021/08/06 11:02:45;;;;;;;15.45;3.60;;;;;;;44.56;10.03;99965.25;5067419;28;20041;-71
2021/08/06 11:05:39;;;;;;;17.85;3.40;;;;;;;44.44;10.08;99958.63;5067353;28;20045;-71
2021/08/06 11:08:25;;;;;;;;;;;;;;;44.37;10.21;99960.56;5062784;28;22133;-71
2021/08/06 11:10:54;;;;;;;19.25;3.53;;;;;;;44.54;10.40;99967.38;5068534;28;20422;-69
2021/08/06 11:13:58;;;;;;;17.52;3.78;;;;;;;44.66;10.37;99962.88;5066126;28;20047;-70
2021/08/06 11:16:25;;;;;;;20.02;4.28;;;;;;;44.72;10.55;99956.47;5061965;28;20033;-70
2021/08/06 11:18:53;;;;;;;22.73;3.85;;;;;;;44.81;10.51;99957.09;5069341;28;20040;-68
2021/08/06 11:21:21;;;;;;;20.73;4.18;;;;;;;44.86;10.61;99955.34;5065860;28;20507;-71
2021/08/06 11:24:00;;;;;;;19.60;3.25;;;;;;;44.93;10.75;99960.91;5065370;28;20036;-70
2021/08/06 11:26:30;;;;;;;23.52;4.18;;;;;;;44.97;10.81;99961.31;5069437;28;20123;-69
2021/08/06 11:28:57;;;;;;;18.95;3.55;;;;;;;45.05;10.91;99956.34;5068500;28;20036;-70
2021/08/06 11:31:25;;;;;;;18.10;3.92;;;;;;;45.18;10.94;99947.13;5068507;28;20044;-69